Time;durP1;ratioP1;P1;durP2;ratioP2;P2;SDS_P1;SDS_P2;PMS_P1;PMS_P2;Temp;Humidity;BMP_temperature;BMP_pressure;BME280_temperature;BME280_humidity;BME280_pressure;Samples;Min_cycle;Max_cycle;Signal;HPM_P1;HPM_P2
2022/01/29 00:01:54;;;;;;;;;;;2.60;99.90;;;;;;5001527;28;20050;-81
2022/01/29 00:04:20;;;;;;;6.78;1.00;;;2.60;99.90;;;;;;5001033;28;19894;-80
2022/01/29 00:06:45;;;;;;;;;;;2.40;99.90;;;;;;5000892;28;20011;-80
2022/01/29 00:09:14;;;;;;;7.93;1.23;;;2.50;99.90;;;;;;5000648;28;19921;-79
2022/01/29 00:11:42;;;;;;;15.30;4.03;;;2.30;99.90;;;;;;5000254;28;20019;-80
2022/01/29 00:14:08;;;;;;;6.03;1.30;;;2.30;99.90;;;;;;4999639;28;20019;-78
2022/01/29 00:16:33;;;;;;;;;;;2.30;99.90;;;;;;4996862;28;20045;-78
2022/01/29 00:18:59;;;;;;;8.10;2.50;;;2.40;99.90;;;;;;4987005;28;19906;-78
2022/01/29 00:21:25;;;;;;;;;;;2.40;99.90;;;;;;4991529;28;20055;-81
2022/01/29 00:23:51;;;;;;;9.02;2.42;;;2.50;99.90;;;;;;4997560;28;19894;-79
2022/01/29 00:26:20;;;;;;;5.35;1.27;;;2.50;99.90;;;;;;4993750;28;20027;-79
2022/01/29 00:28:46;;;;;;;29.02;7.55;;;2.50;99.90;;;;;;4999768;28;20030;-81
2022/01/29 00:31:12;;;;;;;;;;;2.40;99.90;;;;;;4999486;28;20050;-79
2022/01/29 00:33:38;;;;;;;19.42;6.30;;;2.40;99.90;;;;;;4998959;28;19914;-80
2022/01/29 00:36:04;;;;;;;;;;;2.30;99.90;;;;;;4999038;28;20035;-79
2022/01/29 00:38:33;;;;;;;13.98;3.30;;;2.20;99.90;;;;;;4999377;28;19910;-81
2022/01/29 00:40:58;;;;;;;13.55;3.20;;;2.20;99.90;;;;;;4998801;28;20142;-79
2022/01/29 00:43:24;;;;;;;;;;;2.10;99.90;;;;;;4999552;28;20035;-80
2022/01/29 00:45:50;;;;;;;13.18;3.70;;;2.20;99.90;;;;;;4998996;28;20282;-80
2022/01/29 00:48:16;;;;;;;16.98;4.88;;;2.10;99.90;;;;;;4999988;28;20014;-80
2022/01/29 00:50:42;;;;;;;;;;;2.00;99.90;;;;;;5000379;28;20034;-81
2022/01/29 00:53:08;;;;;;;7.38;1.63;;;1.90;99.90;;;;;;4998784;28;19914;-81
2022/01/29 00:55:33;;;;;;;9.93;2.88;;;1.80;99.90;;;;;;4999457;28;20046;-81
2022/01/29 00:57:59;;;;;;;8.77;3.20;;;1.70;99.90;;;;;;4999216;28;20019;-80
2022/01/29 01:00:25;;;;;;;9.27;2.60;;;1.50;99.90;;;;;;4999130;28;20034;-79
2022/01/29 01:02:51;;;;;;;5.68;1.45;;;1.60;99.90;;;;;;4999607;28;20018;-80
2022/01/29 01:05:17;;;;;;;;;;;1.50;99.90;;;;;;4999355;28;20018;-80
2022/01/29 01:07:43;;;;;;;8.27;2.20;;;1.50;99.90;;;;;;4998600;28;19925;-81
2022/01/29 01:10:10;;;;;;;5.20;1.40;;;1.40;99.90;;;;;;4998421;28;20058;-80
2022/01/29 01:15:17;;;;;;;7.78;1.40;;;1.40;99.90;;;;;;5157355;23;20046;-81
2022/01/29 01:17:43;;;;;;;;;;;1.40;99.90;;;;;;5038526;28;20038;-80
2022/01/29 01:20:09;;;;;;;4.78;1.30;;;1.30;99.90;;;;;;5038286;28;19901;-81
2022/01/29 01:22:35;;;;;;;4.38;0.98;;;1.20;99.90;;;;;;5038350;28;20018;-83
2022/01/29 01:25:01;;;;;;;;;;;1.20;99.90;;;;;;5038866;28;20033;-81
2022/01/29 01:27:27;;;;;;;4.13;0.73;;;1.00;99.90;;;;;;5037532;28;19905;-79
2022/01/29 01:29:52;;;;;;;;;;;1.00;99.90;;;;;;5035881;28;20038;-80
2022/01/29 01:32:18;;;;;;;5.40;0.95;;;0.90;99.90;;;;;;5036504;28;19890;-79
2022/01/29 01:34:49;;;;;;;;;;;0.80;99.90;;;;;;5037590;28;20030;-80
2022/01/29 01:37:30;;;;;;;4.90;0.90;;;0.80;99.90;;;;;;5038307;28;19909;-84
2022/01/29 01:39:56;;;;;;;4.65;0.75;;;0.70;99.90;;;;;;5038150;28;20053;-83
2022/01/29 01:42:23;;;;;;;4.90;1.02;;;0.80;99.90;;;;;;5037231;28;20049;-83
2022/01/29 01:44:50;;;;;;;4.75;1.48;;;0.80;99.90;;;;;;5037473;28;20013;-83
2022/01/29 01:47:17;;;;;;;3.00;0.52;;;0.70;99.90;;;;;;5037500;28;20082;-83
2022/01/29 01:49:43;;;;;;;3.45;0.80;;;0.70;99.90;;;;;;5037331;28;20014;-83
2022/01/29 01:52:11;;;;;;;3.38;1.08;;;0.80;99.90;;;;;;5036955;28;20081;-79
2022/01/29 01:54:39;;;;;;;2.90;0.80;;;0.70;99.90;;;;;;5036534;28;20034;-80
2022/01/29 01:57:05;;;;;;;6.20;1.13;;;0.70;99.90;;;;;;5037202;28;20026;-79
2022/01/29 01:59:32;;;;;;;4.10;1.02;;;0.80;99.90;;;;;;5037573;28;20034;-82
2022/01/29 02:01:58;;;;;;;2.60;0.77;;;0.90;99.90;;;;;;5037835;28;20021;-81
2022/01/29 02:04:24;;;;;;;;;;;0.80;99.90;;;;;;5038566;28;20014;-82
2022/01/29 02:06:54;;;;;;;3.88;0.70;;;0.80;99.90;;;;;;5038104;28;19898;-81
2022/01/29 02:09:24;;;;;;;3.22;0.60;;;0.80;99.90;;;;;;5038392;28;20014;-80
2022/01/29 02:11:55;;;;;;;2.25;0.43;;;0.80;99.90;;;;;;5037251;28;20011;-82
2022/01/29 02:14:26;;;;;;;3.25;0.60;;;0.80;99.90;;;;;;5036614;28;20043;-80
2022/01/29 02:16:52;;;;;;;1.75;0.40;;;0.80;99.90;;;;;;5036300;28;20052;-80
2022/01/29 02:19:18;;;;;;;;;;;0.70;99.90;;;;;;5037768;28;20006;-79
2022/01/29 02:21:44;;;;;;;5.35;0.90;;;0.60;99.90;;;;;;5162501;23;19963;-80
2022/01/29 02:24:10;;;;;;;;;;;0.50;99.90;;;;;;5036402;28;20033;-80
2022/01/29 02:26:36;;;;;;;4.70;1.00;;;0.40;99.90;;;;;;5037955;28;19910;-81
2022/01/29 02:29:02;;;;;;;;;;;0.30;99.90;;;;;;5035896;28;20014;-80
2022/01/29 02:31:28;;;;;;;3.58;0.68;;;0.40;99.90;;;;;;5037396;28;19909;-80
2022/01/29 02:33:54;;;;;;;2.22;0.80;;;0.40;99.90;;;;;;5036754;28;20014;-81
2022/01/29 02:36:20;;;;;;;;;;;0.30;99.90;;;;;;5037330;28;20024;-81
2022/01/29 02:38:45;;;;;;;4.13;0.50;;;0.20;99.90;;;;;;5037690;28;19909;-81
2022/01/29 02:41:11;;;;;;;;;;;0.20;99.90;;;;;;5037204;28;20519;-81
2022/01/29 02:43:46;;;;;;;3.55;1.17;;;0.20;99.90;;;;;;5038428;28;19913;-80
2022/01/29 02:48:45;;;;;;;4.50;0.77;;;0.00;99.90;;;;;;5040783;28;20014;-80
2022/01/29 02:51:11;;;;;;;5.40;1.15;;;-0.10;99.90;;;;;;5039814;28;20094;-81
2022/01/29 02:53:37;;;;;;;7.53;1.27;;;-0.20;99.90;;;;;;5040155;28;20102;-81
2022/01/29 02:56:03;;;;;;;;;;;-0.30;99.90;;;;;;5041454;28;20010;-82
2022/01/29 02:58:29;;;;;;;3.72;0.70;;;-0.30;99.90;;;;;;5040321;28;19916;-82
2022/01/29 03:00:55;;;;;;;;;;;-0.40;99.90;;;;;;5041439;28;20036;-82
2022/01/29 03:03:21;;;;;;;4.72;0.60;;;-0.50;99.90;;;;;;5040696;28;20042;-82
2022/01/29 03:05:47;;;;;;;;;;;-0.40;99.90;;;;;;5041410;28;20030;-82
2022/01/29 03:08:13;;;;;;;4.43;1.63;;;-0.50;99.90;;;;;;5041071;28;19893;-82
2022/01/29 03:10:39;;;;;;;;;;;-0.60;99.90;;;;;;5041465;28;20021;-81
2022/01/29 03:13:05;;;;;;;3.38;0.95;;;-0.60;99.90;;;;;;5040662;28;20109;-80
2022/01/29 03:15:31;;;;;;;;;;;-0.50;99.90;;;;;;5039107;28;20018;-80
2022/01/29 03:17:57;;;;;;;5.38;1.05;;;-0.50;99.90;;;;;;5039374;28;19901;-78
2022/01/29 03:20:23;;;;;;;;;;;-0.60;99.90;;;;;;5039725;28;20033;-80
2022/01/29 03:22:49;;;;;;;4.35;1.10;;;-0.70;99.90;;;;;;5039012;28;19925;-81
2022/01/29 03:25:16;;;;;;;;;;;-0.70;99.90;;;;;;5039166;28;20030;-80
2022/01/29 03:27:42;;;;;;;;;;;-0.80;99.90;;;;;;5040107;28;19931;-80
2022/01/29 03:30:09;;;;;;;4.45;1.50;;;-0.90;99.90;;;;;;5039810;28;19905;-80
2022/01/29 03:32:35;;;;;;;4.65;0.60;;;-0.80;99.90;;;;;;5039705;28;20006;-80
2022/01/29 03:35:01;;;;;;;2.72;0.95;;;-0.60;99.90;;;;;;5040020;28;20026;-79
2022/01/29 03:37:27;;;;;;;6.78;1.33;;;-0.30;99.90;;;;;;5039430;28;20018;-80
2022/01/29 03:39:58;;;;;;;;;;;-0.10;99.90;;;;;;5040248;28;20032;-81
2022/01/29 03:42:24;;;;;;;5.55;1.30;;;0.00;99.70;;;;;;5038988;28;19897;-79
2022/01/29 03:44:50;;;;;;;4.15;0.80;;;0.10;98.80;;;;;;5037499;28;20089;-80
2022/01/29 03:47:16;;;;;;;;;;;0.20;98.20;;;;;;5036693;28;20048;-79
2022/01/29 03:49:42;;;;;;;3.55;0.68;;;0.30;98.40;;;;;;5034879;28;19912;-80
2022/01/29 03:52:08;;;;;;;;;;;0.20;98.50;;;;;;5039987;28;20029;-81
2022/01/29 03:54:34;;;;;;;2.17;0.57;;;0.20;98.90;;;;;;5039556;28;19893;-81
2022/01/29 03:56:59;;;;;;;;;;;0.10;99.30;;;;;;5039323;28;20026;-81
2022/01/29 03:59:25;;;;;;;4.90;0.60;;;0.00;99.70;;;;;;5037338;28;19897;-80
2022/01/29 04:01:51;;;;;;;;;;;0.00;99.90;;;;;;5038641;28;20041;-81
2022/01/29 04:04:17;;;;;;;3.03;0.52;;;-0.10;99.90;;;;;;5039447;28;19916;-81
2022/01/29 04:06:43;;;;;;;;;;;-0.10;99.90;;;;;;5040145;28;20014;-81
2022/01/29 04:09:11;;;;;;;2.38;0.70;;;-0.20;99.90;;;;;;5038838;28;19968;-80
2022/01/29 04:11:38;;;;;;;3.50;0.85;;;-0.20;99.90;;;;;;5038468;28;20082;-81
2022/01/29 04:14:13;;;;;;;4.57;0.73;;;-0.20;99.90;;;;;;5039242;28;20037;-81
2022/01/29 04:16:40;;;;;;;2.35;0.80;;;-0.30;99.90;;;;;;5039150;28;20029;-80
2022/01/29 04:19:06;;;;;;;5.80;1.00;;;-0.30;99.90;;;;;;5038518;28;20014;-80
2022/01/29 04:21:31;;;;;;;;;;;-0.30;99.90;;;;;;5038759;28;20068;-81
2022/01/29 04:23:57;;;;;;;4.13;0.63;;;-0.30;99.90;;;;;;5038605;28;19913;-80
2022/01/29 04:26:23;;;;;;;;;;;-0.30;99.90;;;;;;5039094;28;20063;-80
2022/01/29 04:28:51;;;;;;;2.33;0.70;;;-0.30;99.90;;;;;;5037605;28;19893;-80
2022/01/29 04:31:20;;;;;;;4.47;0.80;;;-0.40;99.90;;;;;;5037587;28;20022;-79
2022/01/29 04:33:46;;;;;;;3.45;0.47;;;-0.40;99.90;;;;;;5037766;28;20072;-80
2022/01/29 04:36:12;;;;;;;3.13;1.02;;;-0.40;99.90;;;;;;5037346;28;20026;-80
2022/01/29 04:38:38;;;;;;;14.65;4.60;;;-0.40;99.90;;;;;;5038309;28;20064;-79
2022/01/29 04:41:04;;;;;;;;;;;-0.30;99.90;;;;;;5038322;28;20038;-78
2022/01/29 04:43:37;;;;;;;7.00;2.20;;;-0.30;99.90;;;;;;5037737;28;19900;-80
2022/01/29 04:46:03;;;;;;;3.90;0.80;;;-0.30;99.90;;;;;;5038681;28;20276;-81
2022/01/29 04:48:29;;;;;;;3.30;0.70;;;-0.40;99.90;;;;;;5038331;28;20060;-80
2022/01/29 04:50:55;;;;;;;;;;;-0.30;99.90;;;;;;5038640;28;20014;-80
2022/01/29 04:53:21;;;;;;;2.92;0.93;;;-0.40;99.90;;;;;;5037999;28;20011;-80
2022/01/29 04:55:47;;;;;;;;;;;-0.40;99.90;;;;;;5037730;28;20010;-80
2022/01/29 04:58:13;;;;;;;4.50;1.13;;;-0.30;99.90;;;;;;5037366;28;19894;-80
2022/01/29 05:00:39;;;;;;;;;;;-0.50;99.90;;;;;;5037543;28;20018;-81
2022/01/29 05:03:10;;;;;;;5.43;1.00;;;-0.50;99.90;;;;;;5037372;28;19936;-80
2022/01/29 05:05:36;;;;;;;4.80;1.35;;;-0.50;99.90;;;;;;5037153;28;20034;-80
2022/01/29 05:08:02;;;;;;;;;;;-0.50;99.90;;;;;;5038028;28;20085;-81
2022/01/29 05:10:29;;;;;;;4.50;1.58;;;-0.50;99.90;;;;;;5037819;28;19920;-82
2022/01/29 05:13:01;;;;;;;4.90;1.33;;;-0.50;99.90;;;;;;5038019;28;20029;-81
2022/01/29 05:15:45;;;;;;;4.35;1.52;;;-0.40;99.90;;;;;;5037386;28;20089;-79
2022/01/29 05:29:10;;;;;;;51.92;30.23;;;-0.20;99.90;;;;;;5038061;28;20032;-80
2022/01/29 05:31:38;;;;;;;;;;;-0.20;99.90;;;;;;5037025;28;20101;-81
2022/01/29 05:34:04;;;;;;;115.13;68.30;;;-0.20;99.90;;;;;;5037196;28;19933;-81
2022/01/29 05:36:30;;;;;;;6.75;2.35;;;-0.10;99.90;;;;;;5036943;28;20030;-81
2022/01/29 05:38:56;;;;;;;;;;;-0.10;99.90;;;;;;5037257;28;20048;-81
2022/01/29 05:41:23;;;;;;;4.22;0.73;;;-0.10;99.90;;;;;;5036664;28;19915;-80
2022/01/29 05:43:49;;;;;;;5.13;1.60;;;0.00;99.90;;;;;;5037376;28;20048;-80
2022/01/29 05:46:15;;;;;;;;;;;0.20;99.90;;;;;;5036633;28;20010;-79
2022/01/29 05:48:41;;;;;;;4.57;0.73;;;0.40;99.90;;;;;;5034666;28;19909;-79
2022/01/29 05:51:07;;;;;;;2.85;0.65;;;0.40;99.90;;;;;;5036609;28;20288;-80
2022/01/29 05:53:33;;;;;;;;;;;0.40;99.90;;;;;;5037397;28;20030;-81
2022/01/29 05:55:59;;;;;;;4.07;0.93;;;0.20;99.90;;;;;;5037249;28;19900;-79
2022/01/29 05:58:25;;;;;;;;;;;0.20;99.90;;;;;;5037461;28;20006;-80
2022/01/29 06:00:51;;;;;;;6.70;1.13;;;0.10;99.90;;;;;;5036644;28;19908;-81
2022/01/29 06:03:17;;;;;;;;;;;0.00;99.90;;;;;;5037617;28;20009;-80
2022/01/29 06:05:43;;;;;;;5.18;1.25;;;0.00;99.90;;;;;;5038026;28;19959;-80
2022/01/29 06:08:09;;;;;;;3.20;1.35;;;0.00;99.90;;;;;;5036164;28;20002;-81
2022/01/29 06:10:35;;;;;;;;;;;0.00;99.90;;;;;;5036340;28;20061;-79
2022/01/29 06:13:03;;;;;;;5.05;0.73;;;0.00;99.90;;;;;;5036487;28;19929;-81
2022/01/29 06:15:31;;;;;;;6.68;1.00;;;0.00;99.90;;;;;;5037244;28;20010;-80
2022/01/29 06:17:58;;;;;;;4.20;0.85;;;0.00;99.90;;;;;;5036763;28;20034;-80
2022/01/29 06:20:24;;;;;;;3.80;0.93;;;-0.10;99.90;;;;;;5039583;28;20026;-80
2022/01/29 06:22:51;;;;;;;2.47;0.60;;;0.00;99.90;;;;;;5039516;28;20040;-79
2022/01/29 06:25:17;;;;;;;7.05;1.73;;;-0.10;99.90;;;;;;5040165;28;20014;-81
2022/01/29 06:27:42;;;;;;;;;;;0.00;99.90;;;;;;5040750;28;20017;-81
2022/01/29 06:30:09;;;;;;;9.45;2.47;;;0.00;99.90;;;;;;5040689;28;19977;-80
2022/01/29 06:32:35;;;;;;;31.42;11.95;;;0.00;99.90;;;;;;5040740;28;20013;-80
2022/01/29 06:35:01;;;;;;;;;;;-0.10;99.90;;;;;;5040726;28;20034;-80
2022/01/29 06:37:27;;;;;;;15.90;5.10;;;-0.20;99.90;;;;;;5040796;28;19910;-81
2022/01/29 06:39:53;;;;;;;5.18;2.13;;;-0.30;99.90;;;;;;5040875;28;20041;-80
2022/01/29 06:42:18;;;;;;;;;;;-0.40;99.90;;;;;;5039289;28;20017;-80
2022/01/29 06:44:44;;;;;;;13.93;4.53;;;-0.40;99.90;;;;;;5039766;28;19893;-79
2022/01/29 06:47:10;;;;;;;12.00;5.18;;;-0.40;99.90;;;;;;5037162;28;20022;-79
2022/01/29 06:49:36;;;;;;;;;;;-0.40;99.90;;;;;;5039551;28;20014;-80
2022/01/29 06:52:02;;;;;;;12.43;4.55;;;-0.30;99.90;;;;;;5041172;28;19969;-83
2022/01/29 06:54:28;;;;;;;;;;;-0.20;99.90;;;;;;5041592;28;20086;-81
2022/01/29 06:56:54;;;;;;;16.73;5.22;;;-0.20;99.90;;;;;;5041861;28;19893;-79
2022/01/29 06:59:19;;;;;;;;;;;-0.10;99.90;;;;;;5041101;28;20086;-80
2022/01/29 07:01:48;;;;;;;14.02;4.07;;;-0.20;99.90;;;;;;5039952;28;19949;-80
2022/01/29 07:04:13;;;;;;;9.98;2.92;;;-0.10;99.90;;;;;;5040426;28;20010;-81
2022/01/29 07:06:39;;;;;;;;;;;0.10;99.90;;;;;;5040643;28;20090;-80
2022/01/29 07:09:05;;;;;;;14.48;4.45;;;0.50;99.90;;;;;;5039933;28;19909;-81
2022/01/29 07:11:31;;;;;;;;;;;1.30;99.90;;;;;;5039144;28;20025;-80
2022/01/29 07:14:03;;;;;;;6.15;2.63;;;2.00;99.90;;;;;;5039998;28;19909;-81
2022/01/29 07:16:31;;;;;;;6.70;3.13;;;2.60;99.00;;;;;;5041225;28;20014;-80
2022/01/29 07:18:57;;;;;;;10.27;4.90;;;3.40;96.00;;;;;;5040338;28;20030;-82
2022/01/29 07:21:23;;;;;;;18.75;11.15;;;4.10;93.40;;;;;;5040449;28;20045;-80
2022/01/29 07:23:49;;;;;;;;;;;4.80;87.70;;;;;;5040991;28;20018;-81
2022/01/29 07:26:15;;;;;;;12.25;6.60;;;5.50;74.90;;;;;;5040339;28;19932;-81
2022/01/29 07:28:41;;;;;;;;;;;6.00;73.80;;;;;;5034401;28;20086;-79
2022/01/29 07:31:06;;;;;;;11.63;4.97;;;6.50;66.80;;;;;;5023021;28;19922;-76
2022/01/29 07:33:32;;;;;;;;;;;6.60;65.60;;;;;;5032926;28;20017;-82
2022/01/29 07:35:58;;;;;;;15.10;6.90;;;6.40;62.20;;;;;;5038669;28;19909;-82
2022/01/29 07:38:25;;;;;;;18.08;5.60;;;6.00;65.30;;;;;;5039974;28;20038;-77
2022/01/29 07:40:51;;;;;;;10.48;5.45;;;5.60;66.90;;;;;;5040207;28;20025;-81
2022/01/29 07:43:17;;;;;;;;;;;5.10;67.90;;;;;;5040765;28;20073;-81
2022/01/29 07:45:42;;;;;;;7.63;3.63;;;4.80;70.00;;;;;;5040493;28;19894;-78
2022/01/29 07:48:08;;;;;;;;;;;4.60;72.10;;;;;;5041654;28;20062;-79
2022/01/29 07:50:34;;;;;;;8.23;3.38;;;4.40;75.80;;;;;;5041111;28;19900;-78
2022/01/29 07:53:00;;;;;;;14.05;4.10;;;4.10;82.50;;;;;;5040533;28;20021;-78
2022/01/29 07:55:32;;;;;;;;;;;4.20;79.60;;;;;;5041322;28;20021;-78
2022/01/29 07:57:59;;;;;;;20.90;9.68;;;4.20;80.20;;;;;;5040860;28;19905;-81
2022/01/29 08:00:25;;;;;;;26.05;11.25;;;4.20;81.90;;;;;;5040739;28;20041;-82
2022/01/29 08:02:51;;;;;;;44.75;21.38;;;4.50;79.50;;;;;;5038689;28;20026;-80
2022/01/29 08:05:17;;;;;;;59.47;27.08;;;4.80;78.00;;;;;;5038843;28;20082;-80
2022/01/29 08:07:43;;;;;;;;;;;5.10;75.10;;;;;;5039909;28;20034;-80
2022/01/29 08:10:09;;;;;;;51.45;23.75;;;5.30;68.80;;;;;;5039458;28;19965;-80
2022/01/29 08:12:35;;;;;;;37.47;15.70;;;5.60;65.70;;;;;;5038825;28;20043;-80
2022/01/29 08:15:01;;;;;;;;;;;5.90;61.10;;;;;;5039846;28;20021;-80
2022/01/29 08:17:27;;;;;;;35.58;15.65;;;6.00;57.10;;;;;;5037661;28;19889;-80
2022/01/29 08:19:53;;;;;;;11.07;4.95;;;6.30;56.20;;;;;;5037917;28;20034;-79
2022/01/29 08:22:19;;;;;;;;;;;6.60;53.90;;;;;;5039575;28;20057;-80
2022/01/29 08:24:45;;;;;;;50.83;36.30;;;6.80;52.40;;;;;;5040058;28;19894;-80
2022/01/29 08:27:11;;;;;;;;;;;7.00;50.80;;;;;;5040103;28;20018;-80
2022/01/29 08:29:37;;;;;;;34.97;23.70;;;7.00;50.40;;;;;;5039705;28;19915;-78
2022/01/29 08:32:03;;;;;;;53.35;41.28;;;7.50;50.40;;;;;;5039901;28;20062;-79
2022/01/29 08:34:29;;;;;;;14.43;9.52;;;8.00;48.70;;;;;;5040257;28;20018;-78
2022/01/29 08:36:58;;;;;;;;;;;8.20;46.90;;;;;;5039552;28;20034;-80
2022/01/29 08:39:24;;;;;;;11.40;4.85;;;8.70;45.70;;;;;;5038799;28;19963;-80
2022/01/29 08:41:51;;;;;;;11.38;4.28;;;9.00;44.00;;;;;;5037990;28;20014;-79
2022/01/29 08:44:16;;;;;;;7.25;2.80;;;9.00;42.70;;;;;;5039429;28;20037;-79
2022/01/29 08:46:42;;;;;;;;;;;8.70;43.40;;;;;;5039232;28;20014;-80
2022/01/29 08:49:08;;;;;;;4.63;1.80;;;8.70;44.30;;;;;;5038791;28;19906;-79
2022/01/29 08:51:34;;;;;;;6.40;1.95;;;8.50;45.10;;;;;;5039637;28;20070;-79
2022/01/29 08:54:00;;;;;;;;;;;8.50;45.50;;;;;;5039260;28;20025;-80
2022/01/29 08:56:26;;;;;;;3.13;1.40;;;8.00;45.40;;;;;;5038452;28;19901;-78
2022/01/29 08:58:52;;;;;;;7.80;1.83;;;8.00;46.20;;;;;;5037671;28;20010;-79
2022/01/29 09:01:18;;;;;;;;;;;8.30;45.80;;;;;;5038811;28;20038;-80
2022/01/29 09:03:44;;;;;;;5.40;0.95;;;8.80;44.90;;;;;;5038478;28;19910;-80
2022/01/29 09:06:09;;;;;;;;;;;9.40;43.90;;;;;;5038856;28;20026;-80
2022/01/29 09:08:38;;;;;;;3.42;1.20;;;9.90;43.10;;;;;;5036620;28;19901;-77
2022/01/29 09:11:04;;;;;;;5.88;1.60;;;10.30;42.10;;;;;;5038462;28;20030;-79
2022/01/29 09:13:30;;;;;;;;;;;10.50;41.50;;;;;;5039642;28;20036;-80
2022/01/29 09:15:57;;;;;;;5.32;1.40;;;10.60;41.00;;;;;;5038808;28;19893;-79
2022/01/29 09:18:22;;;;;;;3.25;1.20;;;10.80;40.20;;;;;;5038594;28;20053;-79
2022/01/29 09:20:48;;;;;;;;;;;11.00;39.40;;;;;;5039237;28;20037;-79
2022/01/29 09:23:14;;;;;;;5.30;1.60;;;11.00;38.90;;;;;;5038087;28;20453;-79
2022/01/29 09:25:40;;;;;;;3.72;1.15;;;11.00;38.60;;;;;;5038112;28;20041;-81
2022/01/29 09:28:06;;;;;;;;;;;11.10;38.40;;;;;;5038986;28;20030;-80
2022/01/29 09:30:33;;;;;;;6.57;2.10;;;11.00;39.40;;;;;;5037420;28;19893;-81
2022/01/29 09:32:59;;;;;;;6.43;2.13;;;10.90;39.30;;;;;;5039306;28;20021;-80
2022/01/29 09:35:26;;;;;;;4.18;1.38;;;10.60;39.60;;;;;;5038692;28;20010;-79
2022/01/29 09:37:56;;;;;;;3.60;1.20;;;10.50;39.70;;;;;;5038400;28;20013;-79
2022/01/29 09:40:22;;;;;;;2.72;1.05;;;10.30;39.70;;;;;;5035968;28;20013;-80
2022/01/29 09:42:50;;;;;;;6.22;1.10;;;10.20;39.50;;;;;;5035966;28;20037;-80
2022/01/29 09:45:21;;;;;;;2.20;0.85;;;9.90;39.90;;;;;;5031714;28;20029;-79
2022/01/29 09:47:48;;;;;;;2.70;0.98;;;9.60;40.50;;;;;;5033441;28;20014;-79
2022/01/29 09:50:17;;;;;;;5.35;2.38;;;9.20;41.00;;;;;;5036222;28;20034;-80
2022/01/29 09:52:44;;;;;;;6.13;1.45;;;9.30;40.80;;;;;;5038304;28;20041;-79
2022/01/29 09:55:10;;;;;;;7.38;1.70;;;9.10;41.10;;;;;;5039795;28;20034;-80
2022/01/29 09:57:37;;;;;;;4.70;1.35;;;9.00;41.40;;;;;;5042054;28;20026;-80
2022/01/29 10:00:07;;;;;;;6.05;1.70;;;8.80;41.70;;;;;;5041871;28;20029;-80
2022/01/29 10:02:33;;;;;;;7.72;1.45;;;8.50;42.70;;;;;;5038638;28;20025;-79
2022/01/29 10:04:59;;;;;;;;;;;8.40;43.10;;;;;;5040593;28;20006;-79
2022/01/29 10:07:27;;;;;;;4.18;1.00;;;8.30;43.20;;;;;;5039489;28;19905;-78
2022/01/29 10:09:56;;;;;;;4.03;1.33;;;8.20;42.90;;;;;;5037970;28;20022;-79
2022/01/29 10:12:27;;;;;;;4.18;1.20;;;8.10;43.30;;;;;;5036682;28;20033;-78
2022/01/29 10:15:02;;;;;;;7.10;1.50;;;8.00;43.50;;;;;;5027679;28;20022;-78
2022/01/29 10:17:51;;;;;;;7.72;1.60;;;7.90;44.30;;;;;;5023540;28;20092;-79
2022/01/29 10:20:21;;;;;;;4.60;1.33;;;8.00;44.20;;;;;;5040576;28;20022;-79
2022/01/29 10:22:54;;;;;;;8.45;1.63;;;8.10;43.70;;;;;;5039615;28;20109;-79
2022/01/29 10:25:23;;;;;;;3.03;1.10;;;8.10;43.40;;;;;;5037859;28;20449;-79
2022/01/29 10:28:12;;;;;;;4.70;1.27;;;7.90;44.20;;;;;;5034900;28;20053;-79
2022/01/29 10:31:02;;;;;;;4.40;1.23;;;7.80;43.60;;;;;;5037539;28;20083;-80
2022/01/29 10:33:40;;;;;;;4.00;1.20;;;7.60;42.90;;;;;;5040727;28;20088;-80
2022/01/29 10:36:22;;;;;;;8.02;2.13;;;7.40;43.40;;;;;;5041090;28;20074;-76
2022/01/29 10:38:50;;;;;;;5.18;1.38;;;7.40;44.00;;;;;;5041745;28;20010;-79
2022/01/29 10:41:25;;;;;;;4.25;1.20;;;7.20;44.10;;;;;;5037213;28;20025;-79
2022/01/29 10:43:58;;;;;;;7.32;1.90;;;7.00;44.00;;;;;;5038134;28;20062;-79
2022/01/29 10:46:25;;;;;;;7.20;1.27;;;7.00;45.20;;;;;;5040125;28;20047;-79
2022/01/29 10:48:50;;;;;;;4.97;1.27;;;6.90;44.50;;;;;;5041736;28;20010;-79
2022/01/29 10:51:16;;;;;;;4.78;1.10;;;6.90;45.10;;;;;;5042133;28;20017;-80
2022/01/29 10:53:43;;;;;;;;;;;7.00;45.00;;;;;;5040109;28;20078;-81
2022/01/29 10:56:09;;;;;;;3.30;1.08;;;7.10;44.40;;;;;;5029924;28;19912;-79
2022/01/29 10:58:41;;;;;;;;;;;7.00;44.60;;;;;;5037303;28;20042;-79
2022/01/29 11:01:15;;;;;;;19.75;6.57;;;7.00;44.30;;;;;;5029634;28;19918;-78
2022/01/29 11:03:42;;;;;;;48.50;17.40;;;7.10;44.40;;;;;;5032902;28;20110;-79
2022/01/29 11:06:11;;;;;;;37.25;17.70;;;7.00;44.80;;;;;;5038141;28;20041;-81
2022/01/29 11:08:40;;;;;;;20.65;8.70;;;7.00;45.30;;;;;;5040841;28;20037;-81
2022/01/29 11:11:11;;;;;;;12.20;4.57;;;7.00;45.10;;;;;;5040640;28;20025;-81
2022/01/29 11:13:38;;;;;;;23.92;11.52;;;7.00;45.20;;;;;;5032889;28;20025;-79
2022/01/29 11:16:06;;;;;;;7.32;1.67;;;7.00;44.90;;;;;;5029182;28;20036;-78
2022/01/29 11:18:35;;;;;;;21.98;6.70;;;7.00;44.80;;;;;;5034955;28;20034;-78
2022/01/29 11:21:03;;;;;;;11.95;4.60;;;6.90;45.50;;;;;;5035469;28;20041;-79
2022/01/29 11:23:30;;;;;;;5.20;1.88;;;7.00;44.50;;;;;;5034516;28;20089;-78
2022/01/29 11:25:59;;;;;;;4.85;1.50;;;6.90;44.80;;;;;;5039287;28;20045;-80
2022/01/29 11:28:29;;;;;;;7.93;2.50;;;6.80;44.60;;;;;;5041050;28;20030;-80
2022/01/29 11:31:13;;;;;;;6.53;1.90;;;6.70;44.70;;;;;;5040012;28;20014;-80
2022/01/29 11:34:00;;;;;;;8.48;2.20;;;6.70;44.80;;;;;;5040343;28;20018;-79
2022/01/29 11:36:53;;;;;;;4.22;1.42;;;6.70;45.30;;;;;;5039271;28;20053;-79
2022/01/29 11:39:20;;;;;;;7.57;1.52;;;6.60;46.20;;;;;;5033470;28;20022;-78
2022/01/29 11:42:06;;;;;;;6.20;1.50;;;6.50;46.40;;;;;;5036404;28;20086;-80
2022/01/29 11:44:32;;;;;;;9.57;1.20;;;6.40;47.00;;;;;;5038337;28;20030;-79
2022/01/29 11:47:27;;;;;;;3.85;0.93;;;6.40;47.90;;;;;;5039853;28;20022;-79
2022/01/29 11:50:16;;;;;;;11.23;1.73;;;6.30;49.20;;;;;;5032614;28;20049;-79
2022/01/29 11:52:59;;;;;;;11.43;1.92;;;6.30;49.90;;;;;;5033522;28;20018;-80
2022/01/29 11:55:44;;;;;;;8.27;1.40;;;6.40;50.70;;;;;;5039683;28;20014;-80
2022/01/29 11:58:15;;;;;;;10.15;2.60;;;6.30;52.20;;;;;;5034918;28;20406;-79
2022/01/29 12:00:45;;;;;;;9.18;1.63;;;6.30;52.40;;;;;;5035583;28;20046;-79
2022/01/29 12:03:45;;;;;;;8.75;1.60;;;6.30;53.80;;;;;;5031410;28;20030;-79
2022/01/29 12:09:19;;;;;;;12.13;3.67;;;6.30;56.00;;;;;;5040404;28;20078;-80
2022/01/29 13:20:45;;;;;;;14.75;2.67;;;5.60;80.70;;;;;;6101260;23;20025;-78
2022/01/29 13:23:11;;;;;;;24.17;8.48;;;5.50;80.00;;;;;;5035305;28;20106;-80
2022/01/29 13:25:40;;;;;;;;;;;5.50;81.00;;;;;;5038457;28;20025;-80
2022/01/29 13:28:13;;;;;;;16.80;4.82;;;5.40;81.10;;;;;;5036774;28;19893;-80
2022/01/29 13:30:40;;;;;;;34.13;14.02;;;5.40;83.00;;;;;;5036304;28;20018;-79
2022/01/29 13:33:17;;;;;;;35.15;16.58;;;5.30;85.40;;;;;;5036771;28;20056;-79
2022/01/29 13:35:52;;;;;;;18.55;7.65;;;5.30;87.40;;;;;;5037182;28;20085;-79
2022/01/29 13:38:29;;;;;;;18.40;3.63;;;5.20;87.80;;;;;;5034411;28;20033;-80
2022/01/29 13:40:57;;;;;;;14.52;3.63;;;5.30;88.90;;;;;;5022383;28;20041;-78
2022/01/29 13:43:28;;;;;;;14.88;3.97;;;5.30;90.00;;;;;;5021172;28;20022;-79
2022/01/29 13:45:56;;;;;;;14.63;3.70;;;5.20;90.80;;;;;;5013778;28;20036;-79
2022/01/29 13:48:25;;;;;;;18.88;3.08;;;5.20;92.70;;;;;;5016347;28;20034;-79
2022/01/29 13:51:00;;;;;;;13.38;3.65;;;5.10;94.30;;;;;;5023667;28;20049;-78
2022/01/29 13:53:43;;;;;;;14.85;3.60;;;5.20;95.60;;;;;;5026357;28;20030;-80
2022/01/29 13:56:15;;;;;;;14.50;3.97;;;5.20;96.70;;;;;;5026167;28;20033;-79
2022/01/29 13:58:59;;;;;;;15.65;4.15;;;5.00;97.70;;;;;;5021635;28;20038;-79
2022/01/29 14:01:50;;;;;;;12.43;3.25;;;4.90;98.20;;;;;;5024229;28;20042;-79
2022/01/29 14:04:27;;;;;;;32.38;5.55;;;4.90;98.60;;;;;;5032402;28;20041;-80
2022/01/29 14:06:58;;;;;;;32.97;10.80;;;5.00;98.90;;;;;;5028288;28;20029;-79
2022/01/29 14:09:29;;;;;;;26.85;7.45;;;4.80;99.50;;;;;;5020745;28;20026;-80
2022/01/29 14:11:58;;;;;;;21.17;7.32;;;4.70;99.70;;;;;;5019953;28;20021;-78
2022/01/29 14:14:29;;;;;;;45.90;14.30;;;4.70;99.90;;;;;;5018939;28;20034;-79
2022/01/29 14:16:56;;;;;;;52.60;18.30;;;4.70;99.90;;;;;;5021477;28;20022;-79
2022/01/29 14:19:24;;;;;;;38.15;13.85;;;4.60;99.90;;;;;;5016407;28;20045;-79
2022/01/29 14:21:51;;;;;;;35.95;14.52;;;4.60;99.90;;;;;;5026339;28;19921;-79
2022/01/29 14:24:21;;;;;;;47.78;18.55;;;4.60;99.90;;;;;;5025891;28;20044;-79
2022/01/29 14:26:47;;;;;;;24.50;10.10;;;4.50;99.90;;;;;;5017888;28;20300;-79
2022/01/29 14:29:14;;;;;;;35.38;15.40;;;4.50;99.90;;;;;;5016968;28;20037;-79
2022/01/29 14:31:41;;;;;;;22.85;6.15;;;4.40;99.90;;;;;;5019345;28;20512;-80
2022/01/29 14:34:07;;;;;;;22.98;6.35;;;4.40;99.90;;;;;;5020679;28;20054;-78
2022/01/29 14:36:34;;;;;;;20.13;4.72;;;4.30;99.90;;;;;;5015726;28;20036;-79
2022/01/29 14:39:00;;;;;;;28.25;6.18;;;4.20;99.90;;;;;;5025228;28;20034;-80
2022/01/29 14:41:25;;;;;;;;;;;4.20;99.90;;;;;;5040594;28;20038;-80
2022/01/29 14:43:51;;;;;;;21.27;4.38;;;4.10;99.90;;;;;;5039605;28;19917;-80